createdAt,value
2023-05-04T00:00:47.497Z,6.00
2023-05-04T00:03:15.039Z,5.73
2023-05-04T00:05:46.122Z,5.90
2023-05-04T00:08:38.600Z,5.40
2023-05-04T00:11:24.712Z,5.27
2023-05-04T00:13:51.982Z,5.30
2023-05-04T00:16:19.308Z,6.00
2023-05-04T00:18:46.680Z,6.07
2023-05-04T00:21:13.875Z,5.70
2023-05-04T00:23:40.975Z,5.70
2023-05-04T00:26:08.378Z,5.33
2023-05-04T00:28:35.636Z,5.93
2023-05-04T00:31:04.840Z,6.10
2023-05-04T00:33:32.184Z,5.80
2023-05-04T00:35:59.409Z,5.40
2023-05-04T00:38:26.619Z,6.20
2023-05-04T00:40:54.000Z,5.87
2023-05-04T00:43:21.518Z,5.30
2023-05-04T00:45:48.884Z,5.50
2023-05-04T00:48:16.499Z,6.13
2023-05-04T00:50:44.201Z,6.27
2023-05-04T00:53:11.959Z,5.90
2023-05-04T00:56:18.198Z,6.40
2023-05-04T00:58:46.688Z,5.80
2023-05-04T01:01:14.039Z,6.17
2023-05-04T01:03:41.180Z,5.67
2023-05-04T01:06:45.260Z,5.50
2023-05-04T01:09:28.354Z,6.17
2023-05-04T01:12:38.147Z,6.20
2023-05-04T01:15:07.299Z,5.67
2023-05-04T01:17:34.709Z,6.10
2023-05-04T01:20:02.260Z,6.40
2023-05-04T01:22:29.979Z,5.90
2023-05-04T01:24:57.757Z,6.23
2023-05-04T01:27:37.403Z,6.07
2023-05-04T01:30:22.103Z,6.20
2023-05-04T01:32:50.424Z,6.47
2023-05-04T01:35:17.848Z,6.40
2023-05-04T01:37:45.049Z,6.43
2023-05-04T01:40:12.823Z,6.43
2023-05-04T01:42:39.963Z,5.93
2023-05-04T01:45:09.961Z,6.10
2023-05-04T01:47:37.125Z,6.33
2023-05-04T01:50:05.918Z,6.80
2023-05-04T01:52:33.707Z,6.60
2023-05-04T01:55:00.983Z,6.60
2023-05-04T01:57:28.302Z,6.67
2023-05-04T01:59:55.443Z,6.40
2023-05-04T02:02:22.645Z,6.40
2023-05-04T02:04:49.774Z,6.53
2023-05-04T02:07:17.323Z,6.20
2023-05-04T02:09:44.557Z,6.30
2023-05-04T02:12:11.900Z,6.70
2023-05-04T02:14:39.140Z,6.57
2023-05-04T02:17:07.594Z,6.97
2023-05-04T02:19:34.960Z,6.83
2023-05-04T02:22:02.454Z,6.67
2023-05-04T02:24:29.607Z,6.73
2023-05-04T02:26:56.927Z,6.57
2023-05-04T02:29:24.159Z,6.80
2023-05-04T02:32:10.149Z,6.47
2023-05-04T02:34:37.456Z,6.43
2023-05-04T02:37:07.108Z,6.50
2023-05-04T02:39:34.710Z,6.90
2023-05-04T02:42:01.906Z,6.30
2023-05-04T02:44:29.167Z,6.90
2023-05-04T02:46:57.024Z,6.73
2023-05-04T02:49:24.321Z,6.60
2023-05-04T02:51:51.696Z,5.67
2023-05-04T02:54:19.010Z,7.07
2023-05-04T02:56:46.129Z,6.80
2023-05-04T02:59:13.365Z,6.97
2023-05-04T03:01:40.593Z,7.33
2023-05-04T03:04:08.178Z,6.70
2023-05-04T03:06:36.447Z,7.10
2023-05-04T03:09:04.985Z,7.03
2023-05-04T03:11:33.274Z,6.73
2023-05-04T03:14:00.647Z,7.63
2023-05-04T03:16:27.849Z,7.10
2023-05-04T03:18:54.970Z,6.90
2023-05-04T03:21:22.341Z,7.27
2023-05-04T03:23:49.503Z,7.03
2023-05-04T03:26:16.829Z,7.37
2023-05-04T03:28:44.019Z,7.50
2023-05-04T03:31:11.234Z,7.07
2023-05-04T03:33:38.419Z,6.93
2023-05-04T03:36:05.893Z,7.77
2023-05-04T03:38:33.017Z,7.50
2023-05-04T03:41:00.293Z,7.63
2023-05-04T03:43:27.408Z,6.70
2023-05-04T03:45:54.498Z,7.87
2023-05-04T03:48:21.724Z,6.53
2023-05-04T03:50:48.947Z,7.57
2023-05-04T03:53:16.128Z,7.20
2023-05-04T03:55:43.323Z,7.53
2023-05-04T03:58:10.447Z,7.67
2023-05-04T04:00:37.613Z,6.93
2023-05-04T04:03:05.001Z,7.07
2023-05-04T04:05:32.264Z,7.03
2023-05-04T04:07:59.455Z,7.17
2023-05-04T04:10:26.834Z,7.73
2023-05-04T04:12:54.094Z,8.23
2023-05-04T04:15:21.618Z,7.43
2023-05-04T04:17:48.903Z,7.77
2023-05-04T04:20:16.521Z,8.13
2023-05-04T04:22:43.913Z,8.20
2023-05-04T04:25:11.183Z,7.27
2023-05-04T04:27:38.552Z,7.13
2023-05-04T04:30:06.909Z,7.13
2023-05-04T04:32:34.474Z,8.07
2023-05-04T04:35:01.817Z,7.97
2023-05-04T04:37:29.223Z,7.13
2023-05-04T04:39:56.443Z,7.97
2023-05-04T04:42:23.673Z,7.50
2023-05-04T04:44:51.040Z,7.07
2023-05-04T04:47:18.461Z,7.93
2023-05-04T04:49:45.964Z,7.67
2023-05-04T04:52:13.182Z,7.50
2023-05-04T04:54:40.261Z,7.53
2023-05-04T04:57:07.682Z,7.33
2023-05-04T04:59:34.851Z,7.57
2023-05-04T05:02:03.142Z,7.40
2023-05-04T05:04:30.637Z,7.17
2023-05-04T05:07:18.458Z,7.40
2023-05-04T05:09:46.857Z,7.83
2023-05-04T05:12:14.242Z,7.03
2023-05-04T05:14:41.629Z,7.37
2023-05-04T05:17:10.348Z,7.40
2023-05-04T05:19:37.972Z,7.10
2023-05-04T05:22:05.788Z,8.23
2023-05-04T05:24:33.095Z,7.07
2023-05-04T05:27:00.984Z,7.47
2023-05-04T05:29:28.276Z,7.17
2023-05-04T05:31:55.754Z,7.13
2023-05-04T05:34:23.200Z,7.80
2023-05-04T05:36:50.307Z,6.63
2023-05-04T05:39:17.808Z,7.33
2023-05-04T05:41:45.222Z,7.40
2023-05-04T05:44:13.170Z,6.57
2023-05-04T05:46:40.915Z,6.47
2023-05-04T05:49:08.233Z,6.60
2023-05-04T05:51:35.621Z,6.93
2023-05-04T05:54:03.023Z,6.43
2023-05-04T05:56:30.432Z,5.80
2023-05-04T05:58:57.685Z,5.37
2023-05-04T06:01:24.954Z,5.60
2023-05-04T06:03:52.339Z,6.10
2023-05-04T06:06:22.153Z,5.80
2023-05-04T06:08:49.224Z,5.30
2023-05-04T06:11:16.368Z,5.13
2023-05-04T06:13:43.535Z,5.47
2023-05-04T06:16:10.971Z,4.90
2023-05-04T06:18:38.168Z,4.97
2023-05-04T06:21:05.508Z,5.80
2023-05-04T06:23:33.161Z,4.83
2023-05-04T06:26:00.331Z,5.10
2023-05-04T06:28:27.801Z,5.20
2023-05-04T06:30:55.050Z,4.90
2023-05-04T06:33:22.421Z,4.33
2023-05-04T06:36:11.831Z,4.43
2023-05-04T06:38:39.405Z,4.83
2023-05-04T06:41:06.990Z,4.70
2023-05-04T06:43:34.600Z,4.70
2023-05-04T06:46:05.152Z,4.40
2023-05-04T06:48:32.393Z,4.43
2023-05-04T06:51:01.511Z,4.53
2023-05-04T06:53:30.197Z,4.47
2023-05-04T06:55:57.364Z,4.50
2023-05-04T06:58:24.750Z,4.13
2023-05-04T07:00:53.331Z,4.87
2023-05-04T07:03:20.559Z,4.80
2023-05-04T07:05:49.043Z,4.03
2023-05-04T07:08:18.058Z,4.63
2023-05-04T07:10:46.051Z,4.10
2023-05-04T07:13:14.508Z,4.63
2023-05-04T07:15:45.051Z,4.63
2023-05-04T07:18:13.193Z,4.73
2023-05-04T07:20:43.329Z,5.10
2023-05-04T07:23:10.725Z,4.60
2023-05-04T07:25:37.977Z,4.67
2023-05-04T07:28:05.494Z,4.40
2023-05-04T07:30:32.700Z,4.37
2023-05-04T07:32:59.992Z,4.70
2023-05-04T07:35:27.275Z,4.57
2023-05-04T07:37:54.943Z,4.43
2023-05-04T07:40:22.287Z,4.27
2023-05-04T07:42:49.436Z,4.83
2023-05-04T07:45:17.622Z,4.60
2023-05-04T07:47:44.894Z,4.20
2023-05-04T07:50:12.940Z,4.63
2023-05-04T07:52:40.243Z,4.43
2023-05-04T07:55:08.436Z,3.83
2023-05-04T07:57:37.986Z,4.30
2023-05-04T08:00:06.480Z,4.47
2023-05-04T08:02:34.147Z,4.70
2023-05-04T08:05:01.535Z,3.83
2023-05-04T08:07:30.719Z,3.87
2023-05-04T08:09:58.667Z,4.23
2023-05-04T08:12:27.115Z,4.63
2023-05-04T08:14:54.330Z,4.23
2023-05-04T08:17:21.493Z,4.47
2023-05-04T08:19:48.633Z,4.47
2023-05-04T08:22:15.798Z,4.40
2023-05-04T08:24:42.952Z,4.43
2023-05-04T08:27:16.278Z,4.20
2023-05-04T08:29:43.651Z,4.20
2023-05-04T08:32:11.139Z,4.77
2023-05-04T08:34:38.758Z,4.23
2023-05-04T08:37:06.364Z,4.80
2023-05-04T08:39:33.786Z,4.40
2023-05-04T08:42:59.041Z,4.13
2023-05-04T08:45:29.445Z,4.10
2023-05-04T08:47:56.929Z,4.27
2023-05-04T08:50:24.944Z,4.03
2023-05-04T08:52:53.675Z,5.10
2023-05-04T08:55:21.633Z,4.03
2023-05-04T08:57:51.241Z,4.73
2023-05-04T09:00:20.270Z,4.80
2023-05-04T09:02:49.663Z,4.67
2023-05-04T09:05:18.648Z,4.50
2023-05-04T09:07:47.785Z,4.40
2023-05-04T09:10:15.026Z,4.73
2023-05-04T09:12:42.981Z,3.90
2023-05-04T09:15:21.505Z,4.00
2023-05-04T09:18:06.679Z,4.73
2023-05-04T09:20:48.841Z,3.70
2023-05-04T09:23:18.328Z,4.63
2023-05-04T09:25:51.111Z,4.20
2023-05-04T09:28:20.439Z,4.13
2023-05-04T09:30:49.296Z,4.10
2023-05-04T09:33:17.301Z,3.80
2023-05-04T09:35:47.424Z,4.10
2023-05-04T09:38:28.730Z,4.33
2023-05-04T09:40:56.665Z,4.17
2023-05-04T09:43:27.473Z,3.70
2023-05-04T09:45:54.690Z,4.13
2023-05-04T09:48:27.226Z,3.80
2023-05-04T09:50:58.833Z,4.03
2023-05-04T09:53:31.788Z,3.53
2023-05-04T09:56:47.813Z,4.23
2023-05-04T09:59:18.118Z,4.40
2023-05-04T10:01:46.316Z,4.00
2023-05-04T10:04:14.224Z,3.93
2023-05-04T10:06:43.569Z,4.40
2023-05-04T10:09:13.078Z,4.30
2023-05-04T10:11:40.574Z,4.20
2023-05-04T10:14:08.689Z,3.83
2023-05-04T10:17:21.668Z,4.23
2023-05-04T10:20:22.260Z,4.37
2023-05-04T10:23:22.504Z,3.70
2023-05-04T10:26:31.373Z,3.90
2023-05-04T10:29:24.160Z,4.23
2023-05-04T10:31:53.613Z,4.37
2023-05-04T10:34:42.966Z,4.70
2023-05-04T10:37:18.608Z,4.20
2023-05-04T10:39:56.779Z,4.40
2023-05-04T10:42:24.409Z,4.37
2023-05-04T10:44:57.243Z,4.10
2023-05-04T10:47:33.966Z,3.73
2023-05-04T10:50:11.242Z,4.00
2023-05-04T10:52:51.299Z,3.70
2023-05-04T10:55:19.124Z,3.70
2023-05-04T10:57:56.496Z,3.90
2023-05-04T11:00:39.652Z,4.20
2023-05-04T11:03:08.253Z,3.80
2023-05-04T11:05:47.340Z,4.03
2023-05-04T11:08:26.632Z,4.10
2023-05-04T11:11:08.068Z,4.20
2023-05-04T11:13:44.668Z,4.30
2023-05-04T11:16:15.701Z,4.20
2023-05-04T11:18:42.981Z,3.80
2023-05-04T11:21:10.184Z,4.20
2023-05-04T11:23:38.409Z,3.63
2023-05-04T11:27:20.873Z,3.97
2023-05-04T11:30:08.045Z,3.97
2023-05-04T11:32:44.154Z,3.70
2023-05-04T11:35:20.118Z,3.90
2023-05-04T11:37:49.585Z,3.87
2023-05-04T11:40:27.604Z,3.80
2023-05-04T11:42:57.806Z,4.23
2023-05-04T11:45:35.389Z,4.67
2023-05-04T11:48:03.367Z,4.60
2023-05-04T11:50:31.920Z,4.10
2023-05-04T11:53:12.087Z,4.10
2023-05-04T11:55:40.247Z,4.30
2023-05-04T11:58:10.169Z,4.00
2023-05-04T12:00:51.578Z,4.23
2023-05-04T12:03:39.728Z,4.20
2023-05-04T12:06:17.200Z,4.20
2023-05-04T12:08:44.543Z,4.43
2023-05-04T12:11:26.259Z,3.63
2023-05-04T12:14:15.221Z,4.27
2023-05-04T12:16:43.313Z,3.57
2023-05-04T12:19:15.013Z,3.70
2023-05-04T12:21:54.812Z,3.43
2023-05-04T12:24:24.003Z,3.57
2023-05-04T12:26:51.672Z,3.10
2023-05-04T12:29:18.962Z,3.40
2023-05-04T12:31:46.394Z,3.60
2023-05-04T12:34:13.634Z,3.50
2023-05-04T12:36:41.088Z,3.60
2023-05-04T12:39:08.459Z,3.00
2023-05-04T12:41:35.873Z,3.70
2023-05-04T12:44:03.166Z,3.67
2023-05-04T12:46:30.667Z,3.70
2023-05-04T12:48:58.013Z,3.67
2023-05-04T12:51:25.153Z,3.20
2023-05-04T12:53:52.526Z,2.80
2023-05-04T12:56:19.719Z,3.40
2023-05-04T12:58:46.935Z,3.27
2023-05-04T13:01:14.248Z,3.40
2023-05-04T13:03:41.636Z,3.70
2023-05-04T13:06:09.253Z,3.33
2023-05-04T13:08:36.531Z,3.17
2023-05-04T13:11:03.786Z,3.50
2023-05-04T13:13:31.099Z,3.60
2023-05-04T13:15:58.520Z,3.00
2023-05-04T13:18:27.682Z,3.20
2023-05-04T13:20:57.085Z,3.43
2023-05-04T13:23:25.742Z,3.40
2023-05-04T13:25:53.712Z,3.50
2023-05-04T13:28:21.043Z,3.20
2023-05-04T13:30:48.615Z,3.40
2023-05-04T13:33:28.096Z,3.20
2023-05-04T13:35:59.181Z,3.10
2023-05-04T13:38:27.165Z,3.50
2023-05-04T13:40:56.130Z,3.00
2023-05-04T13:43:23.699Z,3.30
2023-05-04T13:45:51.498Z,3.20
2023-05-04T13:48:18.897Z,3.60
2023-05-04T13:50:46.247Z,3.50
2023-05-04T13:53:13.645Z,3.13
2023-05-04T13:55:40.942Z,3.07
2023-05-04T13:58:08.201Z,2.70
2023-05-04T14:00:35.398Z,2.73
2023-05-04T14:03:02.821Z,2.80
2023-05-04T14:05:30.662Z,3.00
2023-05-04T14:07:57.860Z,2.43
2023-05-04T14:10:25.249Z,2.70
2023-05-04T14:12:52.422Z,3.20
2023-05-04T14:15:22.781Z,2.90
2023-05-04T14:17:50.860Z,2.60
2023-05-04T14:20:18.510Z,2.80
2023-05-04T14:22:45.878Z,3.17
2023-05-04T14:25:13.732Z,3.50
2023-05-04T14:27:43.317Z,3.33
2023-05-04T14:30:11.642Z,2.80
2023-05-04T14:32:38.890Z,3.07
2023-05-04T14:35:10.988Z,3.07
2023-05-04T14:37:41.430Z,3.00
2023-05-04T14:40:11.048Z,2.97
2023-05-04T14:42:38.762Z,2.67
2023-05-04T14:45:08.301Z,3.27
2023-05-04T14:47:36.228Z,2.90
2023-05-04T14:50:06.627Z,2.50
2023-05-04T14:52:34.367Z,2.60
2023-05-04T14:55:02.846Z,2.50
2023-05-04T14:57:30.049Z,2.70
2023-05-04T14:59:57.592Z,2.53
2023-05-04T15:02:24.809Z,2.53
2023-05-04T15:04:52.051Z,2.63
2023-05-04T15:07:20.990Z,2.37
2023-05-04T15:09:48.223Z,2.50
2023-05-04T15:12:15.806Z,2.70
2023-05-04T15:14:43.186Z,2.53
2023-05-04T15:17:11.042Z,2.40
2023-05-04T15:19:41.640Z,2.70
2023-05-04T15:22:08.937Z,2.80
2023-05-04T15:24:36.179Z,2.60
2023-05-04T15:27:03.945Z,2.80
2023-05-04T15:29:32.028Z,2.60
2023-05-04T15:31:59.475Z,2.73
2023-05-04T15:34:26.828Z,2.37
2023-05-04T15:36:55.815Z,2.70
2023-05-04T15:39:23.068Z,2.80
2023-05-04T15:41:50.359Z,2.77
2023-05-04T15:44:17.896Z,2.60
2023-05-04T15:46:45.741Z,2.77
2023-05-04T15:49:13.253Z,2.83
2023-05-04T15:51:40.568Z,2.43
2023-05-04T15:54:07.970Z,2.80
2023-05-04T15:56:35.577Z,2.83
2023-05-04T15:59:02.978Z,2.83
2023-05-04T16:01:30.388Z,2.67
2023-05-04T16:03:59.769Z,3.00
2023-05-04T16:06:27.664Z,2.60
2023-05-04T16:08:55.201Z,2.43
2023-05-04T16:11:22.534Z,2.77
2023-05-04T16:13:51.935Z,2.50
2023-05-04T16:16:19.226Z,2.73
2023-05-04T16:18:46.502Z,2.90
2023-05-04T16:21:15.239Z,2.90
2023-05-04T16:23:42.552Z,3.07
2023-05-04T16:26:09.875Z,2.87
2023-05-04T16:28:37.108Z,2.77
2023-05-04T16:31:10.343Z,2.97
2023-05-04T16:33:39.032Z,2.90
2023-05-04T16:36:07.225Z,2.70
2023-05-04T16:38:34.411Z,2.70
2023-05-04T16:41:01.749Z,2.60
2023-05-04T16:43:29.038Z,3.17
2023-05-04T16:45:56.296Z,3.60
2023-05-04T16:48:23.614Z,3.00
2023-05-04T16:50:50.768Z,3.03
2023-05-04T16:54:14.072Z,2.90
2023-05-04T16:56:41.194Z,3.33
2023-05-04T16:59:08.451Z,3.23
2023-05-04T17:01:35.740Z,2.90
2023-05-04T17:04:03.064Z,3.10
2023-05-04T17:06:30.352Z,3.20
2023-05-04T17:08:57.554Z,2.73
2023-05-04T17:11:24.809Z,3.00
2023-05-04T17:13:52.008Z,2.80
2023-05-04T17:16:19.346Z,3.10
2023-05-04T17:18:46.539Z,3.20
2023-05-04T17:21:13.905Z,3.50
2023-05-04T17:23:41.754Z,3.00
2023-05-04T17:26:10.034Z,3.03
2023-05-04T17:28:37.437Z,3.30
2023-05-04T17:31:04.594Z,3.77
2023-05-04T17:33:31.794Z,3.03
2023-05-04T17:35:58.985Z,2.80
2023-05-04T17:38:26.304Z,3.03
2023-05-04T17:40:53.573Z,2.83
2023-05-04T17:43:20.983Z,2.80
2023-05-04T17:45:48.179Z,2.60
2023-05-04T17:48:16.565Z,2.90
2023-05-04T17:50:45.282Z,3.87
2023-05-04T17:53:12.584Z,2.90
2023-05-04T17:55:39.772Z,3.20
2023-05-04T17:58:06.923Z,2.70
2023-05-04T18:00:34.359Z,2.87
2023-05-04T18:03:01.657Z,2.60
2023-05-04T18:05:29.645Z,2.63
2023-05-04T18:07:56.734Z,2.90
2023-05-04T18:10:24.054Z,2.93
2023-05-04T18:12:51.405Z,2.80
2023-05-04T18:15:18.822Z,2.70
2023-05-04T18:17:46.083Z,2.70
2023-05-04T18:20:13.384Z,2.70
2023-05-04T18:22:42.625Z,2.63
2023-05-04T18:25:28.723Z,2.90
2023-05-04T18:27:58.108Z,2.97
2023-05-04T18:30:25.438Z,2.60
2023-05-04T18:32:52.742Z,2.70
2023-05-04T18:35:20.244Z,2.83
2023-05-04T18:38:27.132Z,3.10
2023-05-04T18:40:54.452Z,2.77
2023-05-04T18:43:21.826Z,2.73
2023-05-04T18:45:49.222Z,2.73
2023-05-04T18:48:16.769Z,2.60
2023-05-04T18:50:59.856Z,2.90
2023-05-04T18:53:27.243Z,2.93
2023-05-04T18:56:06.325Z,2.53
2023-05-04T18:58:34.393Z,2.87
2023-05-04T19:01:01.932Z,2.80
2023-05-04T19:03:29.377Z,3.17
2023-05-04T19:05:57.098Z,2.97
2023-05-04T19:08:24.402Z,2.90
2023-05-04T19:10:51.662Z,2.90
2023-05-04T19:14:41.811Z,2.93
2023-05-04T19:17:09.255Z,3.00
2023-05-04T19:19:38.031Z,2.93
2023-05-04T19:22:05.211Z,3.20
2023-05-04T19:24:34.428Z,3.00
2023-05-04T19:27:01.646Z,2.93
2023-05-04T19:30:26.893Z,3.80
2023-05-04T19:32:54.246Z,3.33
2023-05-04T19:35:21.608Z,3.07
2023-05-04T19:37:51.004Z,3.50
2023-05-04T19:40:18.578Z,3.00
2023-05-04T19:42:46.378Z,3.40
2023-05-04T19:45:15.069Z,3.10
2023-05-04T19:47:42.645Z,3.40
2023-05-04T19:51:24.760Z,2.83
2023-05-04T19:53:51.943Z,3.33
2023-05-04T19:56:19.104Z,3.30
2023-05-04T19:58:46.347Z,2.97
2023-05-04T20:01:13.640Z,3.50
2023-05-04T20:03:40.866Z,3.20
2023-05-04T20:06:08.217Z,3.80
2023-05-04T20:09:13.701Z,3.70
2023-05-04T20:11:40.860Z,3.53
2023-05-04T20:14:26.705Z,3.53
2023-05-04T20:16:55.558Z,3.13
2023-05-04T20:19:23.101Z,3.50
2023-05-04T20:22:09.986Z,3.57
2023-05-04T20:24:37.176Z,3.33
2023-05-04T20:27:04.595Z,3.60
2023-05-04T20:29:32.456Z,3.43
2023-05-04T20:32:03.220Z,3.60
2023-05-04T20:34:30.568Z,4.07
2023-05-04T20:36:58.036Z,3.37
2023-05-04T20:39:25.599Z,3.80
2023-05-04T20:41:53.183Z,3.80
2023-05-04T20:44:20.309Z,3.90
2023-05-04T20:46:47.622Z,4.00
2023-05-04T20:49:15.063Z,3.77
2023-05-04T20:51:42.565Z,3.60
2023-05-04T20:54:09.829Z,3.80
2023-05-04T20:56:37.291Z,3.70
2023-05-04T20:59:04.454Z,3.43
2023-05-04T21:01:31.697Z,3.63
2023-05-04T21:03:59.052Z,3.73
2023-05-04T21:06:26.254Z,3.57
2023-05-04T21:08:53.363Z,3.60
2023-05-04T21:11:21.361Z,4.03
2023-05-04T21:13:48.627Z,3.77
2023-05-04T21:16:16.234Z,4.03
2023-05-04T21:18:45.013Z,3.70
2023-05-04T21:21:12.223Z,3.43
2023-05-04T21:23:39.400Z,3.57
2023-05-04T21:26:06.737Z,3.73
2023-05-04T21:28:33.965Z,3.60
2023-05-04T21:31:01.368Z,3.73
2023-05-04T21:33:28.587Z,3.60
2023-05-04T21:35:55.791Z,3.73
2023-05-04T21:38:22.952Z,4.10
2023-05-04T21:40:50.188Z,3.60
2023-05-04T21:43:17.483Z,3.60
2023-05-04T21:45:44.637Z,3.73
2023-05-04T21:48:11.986Z,4.20
2023-05-04T21:50:39.296Z,3.70
2023-05-04T21:53:06.545Z,3.70
2023-05-04T21:55:33.807Z,3.60
2023-05-04T21:58:01.092Z,3.60
2023-05-04T22:00:29.185Z,4.27
2023-05-04T22:02:56.642Z,3.93
2023-05-04T22:05:23.987Z,3.67
2023-05-04T22:08:28.889Z,3.30
2023-05-04T22:11:14.872Z,3.43
2023-05-04T22:13:42.072Z,3.90
2023-05-04T22:16:09.638Z,3.37
2023-05-04T22:18:36.906Z,3.50
2023-05-04T22:21:04.302Z,3.50
2023-05-04T22:23:31.662Z,2.83
2023-05-04T22:25:58.900Z,3.13
2023-05-04T22:28:26.242Z,3.47
2023-05-04T22:30:53.608Z,3.57
2023-05-04T22:33:20.964Z,3.90
2023-05-04T22:35:48.269Z,3.40
2023-05-04T22:38:15.526Z,3.30
2023-05-04T22:40:45.611Z,3.10
2023-05-04T22:43:12.759Z,3.47
2023-05-04T22:45:41.244Z,3.37
2023-05-04T22:48:08.788Z,4.20
2023-05-04T22:50:35.945Z,4.00
2023-05-04T22:53:03.289Z,3.30
2023-05-04T22:55:30.537Z,3.40
2023-05-04T22:57:57.787Z,3.87
2023-05-04T23:00:25.302Z,3.30
2023-05-04T23:02:52.674Z,3.50
2023-05-04T23:05:20.592Z,3.60
2023-05-04T23:07:49.857Z,3.90
2023-05-04T23:10:17.089Z,3.50
2023-05-04T23:12:44.462Z,3.87
2023-05-04T23:15:11.805Z,3.50
2023-05-04T23:17:39.271Z,3.63
2023-05-04T23:20:08.645Z,3.67
2023-05-04T23:22:36.360Z,3.53
2023-05-04T23:25:04.722Z,3.70
2023-05-04T23:27:34.425Z,4.23
2023-05-04T23:30:01.621Z,4.33
2023-05-04T23:32:28.963Z,3.90
2023-05-04T23:34:56.204Z,4.20
2023-05-04T23:37:23.557Z,4.53
2023-05-04T23:39:50.681Z,3.80
2023-05-04T23:42:17.882Z,4.20
2023-05-04T23:44:44.932Z,3.90
2023-05-04T23:47:12.493Z,3.77
2023-05-04T23:49:39.775Z,3.80
2023-05-04T23:52:07.145Z,4.23
2023-05-04T23:54:34.341Z,3.97
2023-05-04T23:57:01.544Z,4.20
2023-05-04T23:59:28.656Z,4.33
